Time;durP1;ratioP1;P1;durP2;ratioP2;P2;SDS_P1;SDS_P2;PMS_P1;PMS_P2;Temp;Humidity;BMP_temperature;BMP_pressure;BME280_temperature;BME280_humidity;BME280_pressure;Samples;Min_cycle;Max_cycle;Signal;HPM_P1;HPM_P2
2022/07/13 00:00:32;;;;;;;;;;;20.10;99.90;;;;;;5064987;28;19975;-64
2022/07/13 00:02:58;;;;;;;;;;;20.00;99.90;;;;;;5066675;28;19921;-64
2022/07/13 00:05:23;;;;;;;;;;;20.20;99.90;;;;;;5064971;28;20457;-64
2022/07/13 00:07:49;;;;;;;;;;;20.40;99.90;;;;;;5064226;28;20264;-64
2022/07/13 00:10:15;;;;;;;;;;;20.70;99.90;;;;;;5068032;28;20394;-64
2022/07/13 00:12:40;;;;;;;;;;;20.90;99.90;;;;;;5066430;28;19940;-64
2022/07/13 00:15:06;;;;;;;;;;;21.00;99.90;;;;;;5063960;28;19925;-64
2022/07/13 00:17:31;;;;;;;;;;;21.10;99.90;;;;;;5066912;28;19913;-64
2022/07/13 00:19:57;;;;;;;;;;;21.10;99.90;;;;;;5068906;28;19913;-64
2022/07/13 00:22:22;;;;;;;;;;;21.30;99.90;;;;;;5066654;28;20441;-64
2022/07/13 00:24:48;;;;;;;;;;;21.30;99.90;;;;;;5067239;28;19924;-64
2022/07/13 00:27:13;;;;;;;;;;;21.30;99.90;;;;;;5040238;28;19913;-64
2022/07/13 00:29:39;;;;;;;;;;;21.20;99.90;;;;;;5068267;28;19966;-63
2022/07/13 00:32:04;;;;;;;;;;;21.10;99.90;;;;;;5064190;28;19943;-64
2022/07/13 00:34:32;;;;;;;;;;;21.10;99.90;;;;;;5069243;28;19916;-64
2022/07/13 00:36:58;;;;;;;;;;;21.00;99.90;;;;;;5065942;28;19912;-64
2022/07/13 00:39:24;;;;;;;;;;;20.90;99.90;;;;;;5066822;28;19916;-64
2022/07/13 00:41:49;;;;;;;;;;;20.90;99.90;;;;;;5061743;28;19923;-64
2022/07/13 00:44:15;;;;;;;;;;;20.80;99.90;;;;;;5066812;28;19916;-64
2022/07/13 00:46:43;;;;;;;;;;;20.80;99.90;;;;;;5067749;28;19999;-64
2022/07/13 00:49:09;;;;;;;;;;;20.80;99.90;;;;;;5066731;28;20410;-64
2022/07/13 00:51:35;;;;;;;;;;;20.70;99.90;;;;;;5049431;28;20371;-64
2022/07/13 00:54:01;;;;;;;;;;;20.80;99.90;;;;;;5062561;28;19991;-64
2022/07/13 00:56:26;;;;;;;;;;;20.80;99.90;;;;;;5065296;28;19917;-64
2022/07/13 00:58:52;;;;;;;;;;;20.80;99.90;;;;;;5067206;28;19949;-64
2022/07/13 01:01:18;;;;;;;;;;;20.60;99.90;;;;;;5064704;28;20295;-64
2022/07/13 01:03:43;;;;;;;;;;;20.70;99.90;;;;;;5065812;28;20002;-64
2022/07/13 01:06:10;;;;;;;;;;;20.70;99.90;;;;;;5066838;28;20372;-64
2022/07/13 01:08:35;;;;;;;;;;;20.80;99.90;;;;;;5064168;28;19920;-64
2022/07/13 01:11:01;;;;;;;;;;;20.70;99.90;;;;;;5062126;28;20375;-64
2022/07/13 01:13:27;;;;;;;;;;;20.40;99.90;;;;;;5067028;28;19912;-63
2022/07/13 01:15:52;;;;;;;;;;;20.10;99.90;;;;;;5044009;28;20321;-64
2022/07/13 01:18:18;;;;;;;;;;;19.70;99.90;;;;;;5067797;28;19916;-64
2022/07/13 01:20:44;;;;;;;;;;;19.40;99.90;;;;;;5043964;28;19916;-64
2022/07/13 01:23:10;;;;;;;;;;;19.10;99.90;;;;;;5068118;28;19909;-64
2022/07/13 01:25:35;;;;;;;;;;;18.80;99.90;;;;;;5063549;28;20435;-65
2022/07/13 01:28:01;;;;;;;;;;;18.70;99.90;;;;;;5048510;28;20007;-64
2022/07/13 01:30:26;;;;;;;;;;;18.60;99.90;;;;;;5065551;28;19954;-65
2022/07/13 01:32:52;;;;;;;;;;;18.50;99.90;;;;;;5066874;28;19955;-64
2022/07/13 01:35:18;;;;;;;;;;;18.60;99.90;;;;;;5062227;28;20261;-64
2022/07/13 01:37:44;;;;;;;;;;;18.40;99.90;;;;;;5047807;28;19966;-64
2022/07/13 01:40:10;;;;;;;;;;;18.50;99.90;;;;;;5048965;28;20390;-64
2022/07/13 01:42:43;;;;;;;;;;;18.40;99.90;;;;;;5064173;28;19916;-64
2022/07/13 01:45:09;;;;;;;;;;;18.40;99.90;;;;;;5065165;28;19924;-65
2022/07/13 01:47:38;;;;;;;;;;;18.40;99.90;;;;;;5063064;28;19913;-64
2022/07/13 01:50:04;;;;;;;;;;;18.30;99.90;;;;;;5064568;28;19921;-64
2022/07/13 01:52:30;;;;;;;;;;;18.30;99.90;;;;;;5068182;28;19912;-64
2022/07/13 01:54:56;;;;;;;;;;;18.30;99.90;;;;;;5066691;28;19923;-65
2022/07/13 01:57:21;;;;;;;;;;;18.20;99.90;;;;;;5046587;28;19916;-64
2022/07/13 01:59:47;;;;;;;;;;;18.20;99.90;;;;;;5067510;28;19928;-64
2022/07/13 02:02:12;;;;;;;;;;;18.20;99.90;;;;;;5065434;28;19916;-64
2022/07/13 02:04:38;;;;;;;;;;;18.20;99.90;;;;;;5066554;28;19913;-64
2022/07/13 02:07:03;;;;;;;;;;;18.30;99.90;;;;;;5066805;28;19916;-64
2022/07/13 02:09:29;;;;;;;;;;;18.20;99.90;;;;;;5067825;28;19912;-64
2022/07/13 02:11:55;;;;;;;;;;;18.10;99.90;;;;;;5061232;28;20376;-64
2022/07/13 02:14:20;;;;;;;;;;;18.10;99.90;;;;;;5066673;28;19965;-64
2022/07/13 02:16:46;;;;;;;;;;;18.00;99.90;;;;;;5051494;28;19916;-64
2022/07/13 02:19:11;;;;;;;;;;;18.00;99.90;;;;;;5053373;28;20387;-64
2022/07/13 02:21:36;;;;;;;;;;;18.00;99.90;;;;;;5069937;28;19932;-64
2022/07/13 02:24:02;;;;;;;;;;;17.90;99.90;;;;;;5067542;28;20417;-64
2022/07/13 02:26:28;;;;;;;;;;;17.90;99.90;;;;;;5071061;28;20478;-65
2022/07/13 02:28:53;;;;;;;;;;;18.00;99.90;;;;;;5067953;28;20391;-64
2022/07/13 02:31:19;;;;;;;;;;;18.10;99.90;;;;;;5069834;28;19923;-64
2022/07/13 02:33:44;;;;;;;;;;;18.20;99.90;;;;;;5070315;28;19908;-64
2022/07/13 02:36:10;;;;;;;;;;;18.10;99.90;;;;;;5050108;28;20283;-64
2022/07/13 02:38:35;;;;;;;;;;;18.00;99.90;;;;;;5067871;28;19958;-64
2022/07/13 02:41:01;;;;;;;;;;;17.90;99.90;;;;;;5065171;28;19988;-64
2022/07/13 02:43:26;;;;;;;;;;;17.80;99.90;;;;;;5070894;28;19956;-64
2022/07/13 02:45:52;;;;;;;;;;;17.90;99.90;;;;;;5050113;28;19928;-64
2022/07/13 02:48:18;;;;;;;;;;;17.90;99.90;;;;;;5071078;28;19912;-64
2022/07/13 02:50:44;;;;;;;;;;;17.90;99.90;;;;;;5069555;28;19920;-64
2022/07/13 02:53:09;;;;;;;;;;;17.90;99.90;;;;;;5074443;28;19958;-64
2022/07/13 02:55:35;;;;;;;;;;;17.80;99.90;;;;;;5070464;28;19908;-64
2022/07/13 02:58:00;;;;;;;;;;;17.90;99.90;;;;;;5070783;28;19908;-64
2022/07/13 03:00:26;;;;;;;;;;;17.90;99.90;;;;;;5069137;28;19928;-64
2022/07/13 03:02:52;;;;;;;;;;;17.90;99.90;;;;;;5066626;28;19916;-64
2022/07/13 03:05:17;;;;;;;;;;;17.80;99.90;;;;;;5068990;28;20185;-64
2022/07/13 03:07:43;;;;;;;;;;;17.80;99.90;;;;;;5070457;28;19908;-64
2022/07/13 03:10:08;;;;;;;;;;;17.80;99.90;;;;;;5069741;28;19912;-64
2022/07/13 03:12:34;;;;;;;;;;;17.80;99.90;;;;;;5046855;28;20498;-64
2022/07/13 03:14:59;;;;;;;;;;;17.80;99.90;;;;;;5069411;28;20269;-64
2022/07/13 03:17:25;;;;;;;;;;;17.80;99.90;;;;;;5050356;28;20291;-64
2022/07/13 03:19:50;;;;;;;;;;;17.70;99.90;;;;;;5069902;28;19923;-62
2022/07/13 03:22:16;;;;;;;;;;;17.70;99.90;;;;;;5068661;28;19909;-62
2022/07/13 03:24:41;;;;;;;;;;;17.70;99.90;;;;;;5069313;28;19924;-64
2022/07/13 03:27:07;;;;;;;;;;;17.80;99.90;;;;;;5066889;28;20276;-64
2022/07/13 03:29:33;;;;;;;;;;;17.90;99.90;;;;;;5070096;28;19913;-64
2022/07/13 03:31:58;;;;;;;;;;;18.00;99.90;;;;;;5063434;28;19921;-64
2022/07/13 03:34:24;;;;;;;;;;;18.20;99.90;;;;;;5069180;28;19912;-64
2022/07/13 03:36:49;;;;;;;;;;;18.30;99.90;;;;;;5048023;28;20406;-64
2022/07/13 03:39:15;;;;;;;;;;;18.40;99.90;;;;;;5069496;28;19975;-64
2022/07/13 03:41:40;;;;;;;;;;;18.50;99.90;;;;;;5063759;28;19919;-64
2022/07/13 03:44:06;;;;;;;;;;;18.50;99.90;;;;;;5069559;28;20371;-64
2022/07/13 03:46:32;;;;;;;;;;;18.50;99.90;;;;;;5046791;28;20380;-64
2022/07/13 03:48:57;;;;;;;;;;;18.60;99.90;;;;;;5066014;28;19912;-63
2022/07/13 03:51:23;;;;;;;;;;;18.60;99.90;;;;;;5068033;28;19923;-63
2022/07/13 03:53:48;;;;;;;;;;;18.90;99.90;;;;;;5049957;28;19966;-64
2022/07/13 03:56:14;;;;;;;;;;;18.90;99.90;;;;;;5049928;28;19919;-63
2022/07/13 03:58:39;;;;;;;;;;;18.90;99.90;;;;;;5067391;28;20288;-64
2022/07/13 04:01:05;;;;;;;;;;;18.90;99.90;;;;;;5060742;28;19952;-64
2022/07/13 04:03:31;;;;;;;;;;;18.70;99.90;;;;;;5064393;28;20011;-64
2022/07/13 04:05:56;;;;;;;;;;;18.70;99.90;;;;;;5067633;28;20015;-64
2022/07/13 04:08:22;;;;;;;;;;;18.70;99.90;;;;;;5068517;28;19995;-64
2022/07/13 04:10:47;;;;;;;;;;;18.60;99.90;;;;;;5048292;28;19995;-64
2022/07/13 04:13:13;;;;;;;;;;;18.70;99.90;;;;;;5066918;28;20281;-63
2022/07/13 04:15:38;;;;;;;;;;;18.70;99.90;;;;;;5068259;28;19913;-64
2022/07/13 04:18:04;;;;;;;;;;;18.70;99.90;;;;;;5063447;28;20387;-64
2022/07/13 04:20:29;;;;;;;;;;;18.70;99.90;;;;;;5065710;28;20252;-64
2022/07/13 04:22:56;;;;;;;;;;;18.80;99.90;;;;;;5068383;28;21438;-67
2022/07/13 04:25:21;;;;;;;;;;;18.70;99.90;;;;;;5047098;28;19916;-68
2022/07/13 04:27:47;;;;;;;;;;;18.70;99.90;;;;;;5066633;28;19934;-68
2022/07/13 04:30:12;;;;;;;;;;;18.70;99.90;;;;;;5068400;28;19913;-68
2022/07/13 04:32:38;;;;;;;;;;;18.70;99.90;;;;;;5048876;28;19916;-68
2022/07/13 04:35:04;;;;;;;;;;;18.70;99.90;;;;;;5048817;28;19926;-68
2022/07/13 04:37:29;;;;;;;;;;;18.70;99.90;;;;;;5060756;28;19916;-68
2022/07/13 04:39:55;;;;;;;;;;;18.70;99.90;;;;;;5049658;28;19924;-68
2022/07/13 04:42:20;;;;;;;;;;;18.70;99.90;;;;;;5047323;28;19916;-68
2022/07/13 04:44:46;;;;;;;;;;;18.70;99.90;;;;;;5044247;28;20369;-68
2022/07/13 04:47:11;;;;;;;;;;;18.70;99.90;;;;;;5068282;28;19981;-68
2022/07/13 04:49:37;;;;;;;;;;;18.80;99.90;;;;;;5063740;28;19916;-68
2022/07/13 04:52:02;;;;;;;;;;;18.90;99.90;;;;;;5063441;28;20314;-68
2022/07/13 04:54:28;;;;;;;;;;;19.00;99.90;;;;;;5046854;28;20372;-69
2022/07/13 04:56:53;;;;;;;;;;;19.40;99.90;;;;;;5066266;28;19999;-68
2022/07/13 04:59:19;;;;;;;;;;;19.50;99.90;;;;;;5065381;28;20047;-69
2022/07/13 05:01:45;;;;;;;;;;;19.70;99.90;;;;;;5062618;28;20394;-68
2022/07/13 05:04:10;;;;;;;;;;;19.90;99.90;;;;;;5044977;28;20011;-69
2022/07/13 05:06:36;;;;;;;;;;;19.90;99.90;;;;;;5048057;28;20166;-69
2022/07/13 05:09:01;;;;;;;;;;;20.00;99.90;;;;;;5043349;28;19955;-69
2022/07/13 05:11:27;;;;;;;;;;;20.10;99.90;;;;;;5043634;28;19912;-68
2022/07/13 05:13:53;;;;;;;;;;;20.20;99.90;;;;;;5046551;28;20362;-68
2022/07/13 05:16:18;;;;;;;;;;;20.30;99.90;;;;;;5064799;28;19913;-68
2022/07/13 05:18:44;;;;;;;;;;;20.40;99.90;;;;;;5047209;28;19912;-68
2022/07/13 05:21:14;;;;;;;;;;;20.60;99.90;;;;;;5064602;28;20360;-68
2022/07/13 05:23:40;;;;;;;;;;;20.70;99.90;;;;;;5065521;28;19917;-68
2022/07/13 05:26:05;;;;;;;;;;;20.90;99.90;;;;;;5063814;28;20221;-69
2022/07/13 05:28:31;;;;;;;;;;;21.10;99.90;;;;;;5066016;28;20266;-68
2022/07/13 05:30:57;;;;;;;;;;;21.30;99.90;;;;;;5064718;28;19916;-68
2022/07/13 05:33:22;;;;;;;;;;;21.40;99.90;;;;;;5062336;28;19912;-69
2022/07/13 05:35:48;;;;;;;;;;;21.40;99.90;;;;;;5045649;28;19912;-68
2022/07/13 05:38:13;;;;;;;;;;;21.30;99.90;;;;;;5064703;28;20012;-68
2022/07/13 05:40:39;;;;;;;;;;;21.30;99.90;;;;;;5040073;28;20018;-68
2022/07/13 05:43:05;;;;;;;;;;;21.30;99.90;;;;;;5066638;28;19955;-68
2022/07/13 05:45:31;;;;;;;;;;;21.30;99.90;;;;;;5048514;28;19923;-68
2022/07/13 05:47:56;;;;;;;;;;;21.30;99.90;;;;;;5065009;28;20292;-68
2022/07/13 05:50:22;;;;;;;;;;;21.40;99.90;;;;;;5068176;28;19928;-68
2022/07/13 05:52:47;;;;;;;;;;;21.50;99.90;;;;;;5045226;28;19986;-69
2022/07/13 05:55:13;;;;;;;;;;;21.70;99.90;;;;;;5050797;28;20015;-68
2022/07/13 05:57:38;;;;;;;;;;;21.80;99.90;;;;;;5069685;28;19917;-67
2022/07/13 06:00:06;;;;;;;;;;;22.00;99.90;;;;;;5049642;28;20376;-69
2022/07/13 06:02:32;;;;;;;;;;;22.10;99.90;;;;;;5071117;28;19909;-70
2022/07/13 06:04:57;;;;;;;;;;;22.20;99.90;;;;;;5049173;28;20327;-68
2022/07/13 06:07:23;;;;;;;;;;;22.30;99.90;;;;;;5071484;28;19916;-68
2022/07/13 06:09:49;;;;;;;;;;;22.40;99.90;;;;;;5068536;28;19960;-68
2022/07/13 06:12:15;;;;;;;;;;;22.50;99.90;;;;;;5064332;28;19978;-68
2022/07/13 06:14:40;;;;;;;;;;;22.60;99.90;;;;;;5050880;28;20352;-68
2022/07/13 06:17:06;;;;;;;;;;;22.70;99.90;;;;;;5070385;28;19917;-68
2022/07/13 06:19:33;;;;;;;;;;;22.70;99.90;;;;;;5046352;28;19913;-68
2022/07/13 06:21:59;;;;;;;;;;;22.80;99.90;;;;;;5068138;28;20393;-68
2022/07/13 06:24:24;;;;;;;;;;;23.00;99.90;;;;;;5042230;28;20020;-68
2022/07/13 06:26:50;;;;;;;;;;;22.80;99.90;;;;;;5068070;28;19917;-68
2022/07/13 06:29:15;;;;;;;;;;;22.80;99.90;;;;;;5063238;28;19919;-68
2022/07/13 06:31:41;;;;;;;;;;;22.80;99.90;;;;;;5047732;28;19908;-68
2022/07/13 06:34:06;;;;;;;;;;;23.00;99.90;;;;;;5060623;28;20403;-70
2022/07/13 06:36:32;;;;;;;;;;;23.30;99.90;;;;;;5070804;28;20352;-68
2022/07/13 06:38:57;;;;;;;;;;;23.70;99.90;;;;;;5069498;28;19917;-68
2022/07/13 06:41:23;;;;;;;;;;;24.00;99.90;;;;;;5069357;28;20011;-68
2022/07/13 06:43:48;;;;;;;;;;;24.10;99.90;;;;;;5065324;28;19972;-68
2022/07/13 06:46:14;;;;;;;;;;;24.20;99.90;;;;;;5068151;28;19927;-68
2022/07/13 06:48:40;;;;;;;;;;;24.20;99.90;;;;;;5068421;28;19951;-68
2022/07/13 06:51:05;;;;;;;;;;;24.10;99.90;;;;;;5063960;28;19912;-68
2022/07/13 06:53:31;;;;;;;;;;;24.10;99.90;;;;;;5065377;28;19912;-68
2022/07/13 06:55:56;;;;;;;;;;;24.40;99.90;;;;;;5074522;28;20274;-68
2022/07/13 06:58:22;;;;;;;;;;;25.00;99.90;;;;;;5066977;28;19916;-69
2022/07/13 07:00:47;;;;;;;;;;;25.70;99.90;;;;;;5068792;28;19917;-68
2022/07/13 07:03:13;;;;;;;;;;;26.00;98.70;;;;;;5049522;28;19935;-68
2022/07/13 07:05:39;;;;;;;;;;;26.10;98.90;;;;;;5066874;28;19924;-69
2022/07/13 07:08:04;;;;;;;;;;;26.30;98.30;;;;;;5069207;28;19934;-68
2022/07/13 07:10:30;;;;;;;;;;;26.20;97.00;;;;;;5065230;28;19921;-68
2022/07/13 07:12:56;;;;;;;;;;;26.30;97.50;;;;;;5071244;28;19916;-68
2022/07/13 07:15:23;;;;;;;;;;;26.40;97.00;;;;;;5064876;28;20035;-68
2022/07/13 07:17:49;;;;;;;;;;;26.50;95.30;;;;;;5049273;28;19917;-68
2022/07/13 07:20:15;;;;;;;;;;;26.60;97.30;;;;;;5071757;28;20252;-68
2022/07/13 07:22:41;;;;;;;;;;;26.50;95.80;;;;;;5061233;28;19923;-68
2022/07/13 07:25:07;;;;;;;;;;;26.50;94.90;;;;;;5057414;28;19947;-68
2022/07/13 07:27:33;;;;;;;;;;;26.30;95.50;;;;;;5065277;28;19948;-68
2022/07/13 07:29:58;;;;;;;;;;;26.10;96.10;;;;;;5065616;28;19936;-68
2022/07/13 07:32:24;;;;;;;;;;;26.30;95.20;;;;;;5059623;28;19959;-68
2022/07/13 07:34:50;;;;;;;;;;;26.40;95.00;;;;;;5069245;28;19917;-68
2022/07/13 07:37:15;;;;;;;;;;;26.50;94.60;;;;;;5070013;28;20003;-68
2022/07/13 07:39:41;;;;;;;;;;;26.70;94.60;;;;;;5061823;28;19921;-68
2022/07/13 07:42:06;;;;;;;;;;;26.90;93.10;;;;;;5069771;28;19928;-68
2022/07/13 07:44:32;;;;;;;;;;;26.90;93.10;;;;;;5051712;28;20360;-68
2022/07/13 07:46:58;;;;;;;;;;;27.20;91.70;;;;;;5072053;28;19915;-68
2022/07/13 07:49:24;;;;;;;;;;;27.60;92.30;;;;;;5072212;28;19916;-70
2022/07/13 07:51:49;;;;;;;;;;;27.60;92.20;;;;;;5068686;28;19977;-69
2022/07/13 07:54:15;;;;;;;;;;;27.30;91.10;;;;;;5049895;28;19985;-69
2022/07/13 07:56:41;;;;;;;;;;;27.60;91.10;;;;;;5071412;28;20284;-69
2022/07/13 07:59:06;;;;;;;;;;;27.60;90.40;;;;;;5070562;28;19917;-69
2022/07/13 08:01:32;;;;;;;;;;;27.50;89.80;;;;;;5069189;28;19927;-69
2022/07/13 08:03:57;;;;;;;;;;;27.50;90.60;;;;;;5065769;28;19968;-69
2022/07/13 08:06:23;;;;;;;;;;;27.90;90.40;;;;;;5063592;28;19951;-69
2022/07/13 08:08:50;;;;;;;;;;;27.90;89.80;;;;;;5061496;28;20388;-69
2022/07/13 08:11:17;;;;;;;;;;;27.80;89.30;;;;;;5054291;28;19951;-70
2022/07/13 08:13:47;;;;;;;;;;;27.80;89.20;;;;;;5064803;28;19952;-70
2022/07/13 08:16:16;;;;;;;;;;;27.70;88.20;;;;;;5063506;28;19916;-69
2022/07/13 08:18:42;;;;;;;;;;;28.20;87.90;;;;;;5062219;28;19954;-69
2022/07/13 08:21:08;;;;;;;;;;;28.50;85.50;;;;;;5045066;28;20364;-69
2022/07/13 08:23:51;;;;;;;;;;;28.80;84.30;;;;;;5046605;28;20047;-69
2022/07/13 08:26:18;;;;;;;;;;;28.80;82.70;;;;;;5047048;28;20371;-69
2022/07/13 08:28:44;;;;;;;;;;;28.60;82.50;;;;;;5066628;28;19974;-70
2022/07/13 08:31:11;;;;;;;;;;;28.70;82.60;;;;;;5065657;28;19916;-69
2022/07/13 08:39:04;;;;;;;;;;;29.60;80.90;;;;;;5066643;28;19927;-69
2022/07/13 08:41:30;;;;;;;;;;;28.90;80.00;;;;;;5057473;28;19917;-69
2022/07/13 08:43:55;;;;;;;;;;;28.50;80.00;;;;;;5066718;28;19996;-69
2022/07/13 08:46:21;;;;;;;;;;;28.30;80.70;;;;;;5069213;28;19956;-69
2022/07/13 08:48:47;;;;;;;;;;;27.70;80.30;;;;;;5049148;28;19935;-69
2022/07/13 08:51:13;;;;;;;;;;;27.40;80.60;;;;;;5068717;28;19995;-69
2022/07/13 08:53:38;;;;;;;;;;;27.70;80.30;;;;;;5066399;28;20370;-69
2022/07/13 08:56:04;;;;;;;;;;;28.00;80.30;;;;;;5064798;28;20586;-69
2022/07/13 08:58:30;;;;;;;;;;;28.40;79.80;;;;;;5058994;28;19921;-69
2022/07/13 09:00:56;;;;;;;;;;;28.40;79.70;;;;;;5063481;28;19916;-69
2022/07/13 09:06:40;;;;;;;;;;;28.60;80.00;;;;;;5062248;28;20019;-69
2022/07/13 09:09:06;;;;;;;;;;;28.60;80.50;;;;;;5044390;28;19916;-69
2022/07/13 09:11:32;;;;;;;;;;;28.80;80.20;;;;;;5049674;28;20003;-69
2022/07/13 09:13:57;;;;;;;;;;;29.00;81.60;;;;;;5050719;28;19999;-69
2022/07/13 09:16:24;;;;;;;;;;;29.20;81.60;;;;;;5050672;28;19921;-69
2022/07/13 09:18:51;;;;;;;;;;;29.00;79.10;;;;;;5067328;28;19959;-69
2022/07/13 09:21:18;;;;;;;;;;;29.70;77.70;;;;;;5066077;28;20067;-70
2022/07/13 09:23:45;;;;;;;;;;;30.30;76.70;;;;;;5066453;28;19923;-69
2022/07/13 09:26:11;;;;;;;;;;;29.80;76.40;;;;;;5072145;28;19921;-70
2022/07/13 09:28:43;;;;;;;;;;;29.70;77.80;;;;;;5071268;28;19919;-69
2022/07/13 09:31:08;;;;;;;;;;;29.70;76.80;;;;;;5056164;28;19909;-69
2022/07/13 09:33:35;;;;;;;;;;;29.80;77.00;;;;;;5076092;28;19973;-70
2022/07/13 09:36:11;;;;;;;;;;;29.20;75.70;;;;;;5070800;28;20014;-69
2022/07/13 09:38:39;;;;;;;;;;;28.80;76.60;;;;;;5053772;28;19916;-69
2022/07/13 09:41:14;;;;;;;;;;;28.90;77.40;;;;;;5065825;28;20370;-69
2022/07/13 09:47:03;;;;;;;;;;;30.30;76.10;;;;;;4969944;28;19929;-70
2022/07/13 09:49:32;;;;;;;;;;;30.40;75.50;;;;;;4972559;28;19910;-70
2022/07/13 09:51:58;;;;;;;;;;;29.90;76.30;;;;;;4973211;28;20008;-69
2022/07/13 09:54:30;;;;;;;;;;;29.70;76.30;;;;;;4973199;28;19937;-70
2022/07/13 09:56:57;;;;;;;;;;;29.80;75.70;;;;;;4957930;28;20037;-69
2022/07/13 09:59:23;;;;;;;;;;;30.20;73.70;;;;;;4974523;28;20013;-69
2022/07/13 10:01:48;;;;;;;;;;;30.40;74.00;;;;;;4972474;28;20379;-69
2022/07/13 10:04:14;;;;;;;;;;;30.30;73.70;;;;;;4970181;28;19914;-70
2022/07/13 10:06:40;;;;;;;;;;;30.30;73.30;;;;;;4973256;28;20378;-69
2022/07/13 10:09:06;;;;;;;;;;;30.00;75.50;;;;;;4959308;28;19966;-71
2022/07/13 10:11:31;;;;;;;;;;;30.70;72.70;;;;;;4970484;28;20457;-70
2022/07/13 10:13:57;;;;;;;;;;;31.50;72.10;;;;;;4962467;28;19942;-70
2022/07/13 10:16:23;;;;;;;;;;;31.20;71.00;;;;;;4978299;28;20047;-71
2022/07/13 10:18:50;;;;;;;;;;;31.10;72.20;;;;;;5073338;28;19984;-70
2022/07/13 10:21:18;;;;;;;;;;;30.70;72.40;;;;;;5073297;28;19930;-71
2022/07/13 10:23:44;;;;;;;;;;;30.10;72.90;;;;;;5070735;28;19975;-70
2022/07/13 10:26:19;;;;;;;;;;;30.00;72.80;;;;;;5074800;28;19925;-70
2022/07/13 10:29:03;;;;;;;;;;;29.70;73.80;;;;;;5072131;28;19912;-70
2022/07/13 10:31:29;;;;;;;;;;;29.60;72.90;;;;;;5074079;28;20415;-70
2022/07/13 10:33:55;;;;;;;;;;;30.20;73.30;;;;;;5047220;28;19913;-70
2022/07/13 10:36:39;;;;;;;;;;;30.60;72.20;;;;;;5073593;28;20011;-70
2022/07/13 10:39:11;;;;;;;;;;;31.70;71.60;;;;;;5068422;28;19955;-70
2022/07/13 10:41:54;;;;;;;;;;;31.70;71.00;;;;;;5071187;28;19939;-70
2022/07/13 10:44:29;;;;;;;;;;;31.00;70.90;;;;;;5068959;28;19925;-70
2022/07/13 10:46:55;;;;;;;;;;;30.40;72.20;;;;;;5071821;28;20384;-70
2022/07/13 10:49:44;;;;;;;;;;;30.20;72.20;;;;;;5068924;28;19920;-70
2022/07/13 10:52:22;;;;;;;;;;;30.80;71.90;;;;;;5049020;28;19966;-70
2022/07/13 10:55:03;;;;;;;;;;;31.10;71.40;;;;;;5070155;28;19967;-70
2022/07/13 10:57:28;;;;;;;;;;;30.70;71.50;;;;;;5066632;28;19915;-70
2022/07/13 10:59:59;;;;;;;;;;;31.20;72.50;;;;;;5072434;28;19921;-69
2022/07/13 11:02:46;;;;;;;;;;;31.80;71.50;;;;;;5064552;28;19916;-70
2022/07/13 11:05:12;;;;;;;;;;;31.60;70.50;;;;;;5069890;28;19916;-69
2022/07/13 11:07:39;;;;;;;;;;;32.20;70.50;;;;;;5062052;28;19920;-70
2022/07/13 11:10:16;;;;;;;;;;;32.60;68.90;;;;;;5069663;28;19913;-70
2022/07/13 11:12:55;;;;;;;;;;;32.00;69.60;;;;;;5069373;28;19913;-71
2022/07/13 11:15:21;;;;;;;;;;;31.30;70.60;;;;;;5065586;28;19932;-71
2022/07/13 11:17:52;;;;;;;;;;;31.50;71.00;;;;;;5054915;28;19908;-70
2022/07/13 11:20:17;;;;;;;;;;;31.60;70.80;;;;;;5071966;28;19912;-71
2022/07/13 11:25:48;;;;;;;;;;;31.70;71.90;;;;;;5069903;28;20069;-71
2022/07/13 11:28:14;;;;;;;;;;;31.70;71.00;;;;;;5073168;28;19923;-71
2022/07/13 11:30:43;;;;;;;;;;;31.20;71.30;;;;;;5072060;28;19917;-70
2022/07/13 11:33:11;;;;;;;;;;;30.60;72.00;;;;;;5050090;28;19920;-71
2022/07/13 11:35:37;;;;;;;;;;;30.20;72.50;;;;;;5073624;28;19912;-71
2022/07/13 11:38:03;;;;;;;;;;;30.20;73.60;;;;;;5066815;28;19969;-71
2022/07/13 11:40:30;;;;;;;;;;;30.70;73.10;;;;;;5069460;28;20003;-71
2022/07/13 11:42:57;;;;;;;;;;;30.00;73.30;;;;;;5067167;28;19913;-71
2022/07/13 11:45:25;;;;;;;;;;;29.60;74.50;;;;;;5036244;28;20469;-71
2022/07/13 11:47:54;;;;;;;;;;;29.20;75.00;;;;;;5047150;28;19913;-71
2022/07/13 11:50:19;;;;;;;;;;;29.20;78.30;;;;;;5055663;28;19972;-71
2022/07/13 11:52:46;;;;;;;;;;;29.10;77.40;;;;;;5064482;28;19971;-71
2022/07/13 11:55:11;;;;;;;;;;;29.00;77.10;;;;;;5070035;28;20008;-70
2022/07/13 11:57:37;;;;;;;;;;;29.40;77.10;;;;;;5071475;28;20244;-71
2022/07/13 12:00:04;;;;;;;;;;;29.80;76.00;;;;;;5071768;28;19925;-72
2022/07/13 12:02:30;;;;;;;;;;;29.80;75.60;;;;;;5069560;28;19924;-70
2022/07/13 12:04:56;;;;;;;;;;;30.20;76.20;;;;;;5046477;28;20015;-70
2022/07/13 12:07:23;;;;;;;;;;;30.70;75.00;;;;;;5062800;28;19955;-70
2022/07/13 12:09:59;;;;;;;;;;;31.60;74.40;;;;;;5042888;28;19912;-70
2022/07/13 12:12:26;;;;;;;;;;;31.70;73.50;;;;;;5067580;28;19912;-71
2022/07/13 12:14:53;;;;;;;;;;;32.40;72.30;;;;;;5052562;28;19916;-71
2022/07/13 12:17:19;;;;;;;;;;;32.80;71.20;;;;;;5068391;28;19913;-71
2022/07/13 12:19:45;;;;;;;;;;;32.60;71.20;;;;;;5068376;28;19935;-71
2022/07/13 12:22:10;;;;;;;;;;;31.90;72.20;;;;;;5069667;28;20071;-71
2022/07/13 12:24:41;;;;;;;;;;;32.00;71.80;;;;;;5051172;28;19913;-71
2022/07/13 12:27:06;;;;;;;;;;;31.70;71.60;;;;;;5071711;28;19909;-70
2022/07/13 12:29:33;;;;;;;;;;;31.50;73.40;;;;;;5049111;28;20264;-70
2022/07/13 12:31:59;;;;;;;;;;;32.10;73.40;;;;;;5066759;28;19920;-71
2022/07/13 12:34:24;;;;;;;;;;;31.90;71.00;;;;;;5072758;28;20292;-71
2022/07/13 12:36:50;;;;;;;;;;;32.60;71.40;;;;;;5054185;28;19921;-71
2022/07/13 12:39:20;;;;;;;;;;;32.10;71.60;;;;;;5072441;28;20019;-71
2022/07/13 12:41:55;;;;;;;;;;;31.50;73.30;;;;;;5069077;28;19916;-70
2022/07/13 12:44:26;;;;;;;;;;;31.40;72.50;;;;;;5067849;28;19943;-71
2022/07/13 12:46:54;;;;;;;;;;;31.60;73.10;;;;;;5069313;28;19912;-70
2022/07/13 12:49:47;;;;;;;;;;;31.90;71.70;;;;;;5051456;28;19921;-71
2022/07/13 12:52:12;;;;;;;;;;;31.70;72.00;;;;;;5050131;28;20016;-70
2022/07/13 12:54:46;;;;;;;;;;;30.80;71.20;;;;;;5061448;28;19946;-70
2022/07/13 12:57:13;;;;;;;;;;;30.60;72.10;;;;;;5063775;28;20352;-70
2022/07/13 12:59:38;;;;;;;;;;;30.50;72.70;;;;;;5066694;28;20011;-70
2022/07/13 13:02:04;;;;;;;;;;;30.40;72.40;;;;;;5068440;28;20355;-70
2022/07/13 13:04:30;;;;;;;;;;;30.10;72.90;;;;;;5067757;28;19926;-70
2022/07/13 13:06:55;;;;;;;;;;;30.50;73.40;;;;;;5054057;28;20004;-70
2022/07/13 13:09:22;;;;;;;;;;;30.40;72.90;;;;;;5044920;28;19912;-70
2022/07/13 13:11:48;;;;;;;;;;;30.20;73.90;;;;;;5060046;28;19958;-70
2022/07/13 13:14:14;;;;;;;;;;;30.20;74.40;;;;;;5053920;28;19930;-71
2022/07/13 13:16:40;;;;;;;;;;;30.70;74.20;;;;;;5068903;28;19975;-71
2022/07/13 13:19:06;;;;;;;;;;;31.50;73.20;;;;;;5068753;28;20360;-70
2022/07/13 13:21:32;;;;;;;;;;;31.70;72.40;;;;;;5069574;28;20300;-70
2022/07/13 13:23:58;;;;;;;;;;;31.70;71.70;;;;;;5063287;28;19919;-70
2022/07/13 13:26:24;;;;;;;;;;;31.70;72.10;;;;;;5070473;28;20344;-70
2022/07/13 13:31:33;;;;;;;;;;;30.20;73.40;;;;;;5063811;28;20356;-71
2022/07/13 13:33:59;;;;;;;;;;;30.10;73.70;;;;;;5066583;28;20003;-71
2022/07/13 13:36:25;;;;;;;;;;;30.80;73.40;;;;;;5065618;28;20023;-70
2022/07/13 13:38:50;;;;;;;;;;;31.30;71.80;;;;;;5048684;28;20007;-70
2022/07/13 13:41:16;;;;;;;;;;;31.80;70.90;;;;;;5061431;28;20011;-70
2022/07/13 13:43:41;;;;;;;;;;;31.60;71.80;;;;;;5067028;28;19974;-70
2022/07/13 13:46:07;;;;;;;;;;;31.40;72.50;;;;;;5049537;28;20348;-70
2022/07/13 13:48:33;;;;;;;;;;;31.10;72.80;;;;;;5047920;28;19928;-71
2022/07/13 13:50:59;;;;;;;;;;;32.10;72.60;;;;;;5049929;28;19916;-71
2022/07/13 13:53:25;;;;;;;;;;;32.10;72.00;;;;;;5046389;28;19943;-72
2022/07/13 13:55:51;;;;;;;;;;;33.00;70.60;;;;;;5048042;28;19912;-71
2022/07/13 13:58:17;;;;;;;;;;;32.60;71.10;;;;;;5062246;28;19912;-71
2022/07/13 14:00:43;;;;;;;;;;;32.10;71.70;;;;;;5041367;28;19956;-71
2022/07/13 14:03:09;;;;;;;;;;;31.80;73.50;;;;;;5066521;28;19920;-71
2022/07/13 14:05:34;;;;;;;;;;;31.80;73.00;;;;;;5043982;28;20129;-71
2022/07/13 14:08:00;;;;;;;;;;;31.50;71.90;;;;;;5065328;28;19917;-71
2022/07/13 14:10:26;;;;;;;;;;;31.70;72.70;;;;;;5063706;28;19909;-71
2022/07/13 14:12:52;;;;;;;;;;;31.40;73.10;;;;;;5066677;28;19913;-70
2022/07/13 14:15:17;;;;;;;;;;;31.10;72.10;;;;;;5068502;28;20303;-70
2022/07/13 14:17:43;;;;;;;;;;;30.70;72.20;;;;;;5069745;28;19916;-70
2022/07/13 14:20:09;;;;;;;;;;;30.30;73.30;;;;;;5071213;28;19912;-70
2022/07/13 14:22:35;;;;;;;;;;;30.30;73.90;;;;;;5068530;28;20249;-70
2022/07/13 14:25:01;;;;;;;;;;;29.80;73.70;;;;;;5053089;28;19924;-70
2022/07/13 14:27:27;;;;;;;;;;;29.90;74.30;;;;;;5070272;28;20332;-70
2022/07/13 14:29:53;;;;;;;;;;;30.00;74.40;;;;;;5049281;28;20328;-70